sensor_id;sensor_type;location;lat;lon;timestamp;P1;durP1;ratioP1;P2;durP2;ratioP2
6372;SDS011;3219;51.362;7.074;2023-08-08T00:02:07;4.05;;;3.03;;
6372;SDS011;3219;51.362;7.074;2023-08-08T00:04:36;4.25;;;1.95;;
6372;SDS011;3219;51.362;7.074;2023-08-08T00:07:04;4.43;;;1.50;;
6372;SDS011;3219;51.362;7.074;2023-08-08T00:09:32;3.15;;;2.08;;
6372;SDS011;3219;51.362;7.074;2023-08-08T00:12:00;2.42;;;1.73;;
6372;SDS011;3219;51.362;7.074;2023-08-08T00:14:28;4.13;;;1.33;;
6372;SDS011;3219;51.362;7.074;2023-08-08T00:16:55;4.22;;;1.48;;
6372;SDS011;3219;51.362;7.074;2023-08-08T00:19:23;3.75;;;1.55;;
6372;SDS011;3219;51.362;7.074;2023-08-08T00:21:52;1.98;;;1.35;;
6372;SDS011;3219;51.362;7.074;2023-08-08T00:24:20;2.20;;;1.83;;
6372;SDS011;3219;51.362;7.074;2023-08-08T00:26:48;2.35;;;1.80;;
6372;SDS011;3219;51.362;7.074;2023-08-08T00:29:16;3.03;;;1.40;;
6372;SDS011;3219;51.362;7.074;2023-08-08T00:31:43;4.63;;;1.60;;
6372;SDS011;3219;51.362;7.074;2023-08-08T00:34:11;4.90;;;1.88;;
6372;SDS011;3219;51.362;7.074;2023-08-08T00:36:39;3.30;;;2.55;;
6372;SDS011;3219;51.362;7.074;2023-08-08T00:39:09;2.05;;;1.77;;
6372;SDS011;3219;51.362;7.074;2023-08-08T00:41:36;3.15;;;2.30;;
6372;SDS011;3219;51.362;7.074;2023-08-08T00:44:04;3.97;;;2.10;;
6372;SDS011;3219;51.362;7.074;2023-08-08T00:46:32;3.78;;;1.85;;
6372;SDS011;3219;51.362;7.074;2023-08-08T00:49:00;2.33;;;1.60;;
6372;SDS011;3219;51.362;7.074;2023-08-08T00:51:28;3.22;;;1.60;;
6372;SDS011;3219;51.362;7.074;2023-08-08T00:53:56;4.88;;;1.30;;
6372;SDS011;3219;51.362;7.074;2023-08-08T00:56:25;3.15;;;1.48;;
6372;SDS011;3219;51.362;7.074;2023-08-08T00:58:53;3.28;;;2.28;;
6372;SDS011;3219;51.362;7.074;2023-08-08T01:01:21;4.30;;;1.70;;
6372;SDS011;3219;51.362;7.074;2023-08-08T01:03:49;4.05;;;2.22;;
6372;SDS011;3219;51.362;7.074;2023-08-08T01:06:19;3.03;;;2.15;;
6372;SDS011;3219;51.362;7.074;2023-08-08T01:08:51;2.92;;;1.70;;
6372;SDS011;3219;51.362;7.074;2023-08-08T01:11:19;2.60;;;1.92;;
6372;SDS011;3219;51.362;7.074;2023-08-08T01:13:48;3.45;;;1.77;;
6372;SDS011;3219;51.362;7.074;2023-08-08T01:16:16;2.55;;;1.55;;
6372;SDS011;3219;51.362;7.074;2023-08-08T01:18:45;3.20;;;1.55;;
6372;SDS011;3219;51.362;7.074;2023-08-08T01:21:16;3.38;;;2.40;;
6372;SDS011;3219;51.362;7.074;2023-08-08T01:23:45;4.15;;;1.98;;
6372;SDS011;3219;51.362;7.074;2023-08-08T01:26:15;2.97;;;1.50;;
6372;SDS011;3219;51.362;7.074;2023-08-08T01:28:43;3.92;;;1.85;;
6372;SDS011;3219;51.362;7.074;2023-08-08T01:31:12;2.22;;;1.73;;
6372;SDS011;3219;51.362;7.074;2023-08-08T01:33:39;3.13;;;1.92;;
6372;SDS011;3219;51.362;7.074;2023-08-08T01:36:07;2.80;;;1.98;;
6372;SDS011;3219;51.362;7.074;2023-08-08T01:38:40;3.78;;;2.83;;
6372;SDS011;3219;51.362;7.074;2023-08-08T01:41:08;3.42;;;1.67;;
6372;SDS011;3219;51.362;7.074;2023-08-08T01:43:38;4.57;;;1.90;;
6372;SDS011;3219;51.362;7.074;2023-08-08T01:46:05;3.53;;;2.22;;
6372;SDS011;3219;51.362;7.074;2023-08-08T01:48:34;4.60;;;1.55;;
6372;SDS011;3219;51.362;7.074;2023-08-08T01:51:02;3.95;;;1.88;;
6372;SDS011;3219;51.362;7.074;2023-08-08T01:53:30;2.55;;;1.60;;
6372;SDS011;3219;51.362;7.074;2023-08-08T01:55:58;2.83;;;1.67;;
6372;SDS011;3219;51.362;7.074;2023-08-08T02:00:56;4.30;;;2.17;;
6372;SDS011;3219;51.362;7.074;2023-08-08T02:03:23;3.80;;;2.05;;
6372;SDS011;3219;51.362;7.074;2023-08-08T02:05:52;3.40;;;3.00;;
6372;SDS011;3219;51.362;7.074;2023-08-08T02:08:20;5.15;;;2.22;;
6372;SDS011;3219;51.362;7.074;2023-08-08T02:10:48;3.30;;;2.15;;
6372;SDS011;3219;51.362;7.074;2023-08-08T02:13:15;5.65;;;1.85;;
6372;SDS011;3219;51.362;7.074;2023-08-08T02:15:43;5.22;;;2.58;;
6372;SDS011;3219;51.362;7.074;2023-08-08T02:18:12;5.50;;;2.22;;
6372;SDS011;3219;51.362;7.074;2023-08-08T02:20:40;3.08;;;1.95;;
6372;SDS011;3219;51.362;7.074;2023-08-08T02:23:09;3.22;;;2.05;;
6372;SDS011;3219;51.362;7.074;2023-08-08T02:25:36;3.22;;;1.88;;
6372;SDS011;3219;51.362;7.074;2023-08-08T02:28:04;3.10;;;1.83;;
6372;SDS011;3219;51.362;7.074;2023-08-08T02:30:32;3.45;;;2.30;;
6372;SDS011;3219;51.362;7.074;2023-08-08T02:33:00;2.97;;;1.80;;
6372;SDS011;3219;51.362;7.074;2023-08-08T02:35:29;3.95;;;2.08;;
6372;SDS011;3219;51.362;7.074;2023-08-08T02:37:57;3.30;;;1.85;;
6372;SDS011;3219;51.362;7.074;2023-08-08T02:40:24;3.95;;;1.90;;
6372;SDS011;3219;51.362;7.074;2023-08-08T02:42:52;2.53;;;2.33;;
6372;SDS011;3219;51.362;7.074;2023-08-08T02:45:20;5.40;;;2.60;;
6372;SDS011;3219;51.362;7.074;2023-08-08T02:47:48;3.30;;;2.55;;
6372;SDS011;3219;51.362;7.074;2023-08-08T02:50:17;2.28;;;1.90;;
6372;SDS011;3219;51.362;7.074;2023-08-08T02:52:45;2.45;;;1.60;;
6372;SDS011;3219;51.362;7.074;2023-08-08T02:57:41;4.18;;;2.10;;
6372;SDS011;3219;51.362;7.074;2023-08-08T03:00:10;3.72;;;2.03;;
6372;SDS011;3219;51.362;7.074;2023-08-08T03:02:38;2.20;;;1.85;;
6372;SDS011;3219;51.362;7.074;2023-08-08T03:05:06;2.50;;;1.73;;
6372;SDS011;3219;51.362;7.074;2023-08-08T03:07:34;5.35;;;2.72;;
6372;SDS011;3219;51.362;7.074;2023-08-08T03:10:03;2.45;;;1.83;;
6372;SDS011;3219;51.362;7.074;2023-08-08T03:12:32;4.25;;;2.35;;
6372;SDS011;3219;51.362;7.074;2023-08-08T03:15:00;3.15;;;1.85;;
6372;SDS011;3219;51.362;7.074;2023-08-08T03:17:28;4.97;;;2.33;;
6372;SDS011;3219;51.362;7.074;2023-08-08T03:19:56;2.20;;;1.58;;
6372;SDS011;3219;51.362;7.074;2023-08-08T03:22:24;3.38;;;1.90;;
6372;SDS011;3219;51.362;7.074;2023-08-08T03:24:52;3.60;;;2.00;;
6372;SDS011;3219;51.362;7.074;2023-08-08T03:27:21;4.03;;;2.17;;
6372;SDS011;3219;51.362;7.074;2023-08-08T03:29:49;6.00;;;2.20;;
6372;SDS011;3219;51.362;7.074;2023-08-08T03:32:16;4.22;;;2.10;;
6372;SDS011;3219;51.362;7.074;2023-08-08T03:34:44;3.15;;;1.90;;
6372;SDS011;3219;51.362;7.074;2023-08-08T03:37:12;3.78;;;2.90;;
6372;SDS011;3219;51.362;7.074;2023-08-08T03:39:40;4.47;;;2.50;;
6372;SDS011;3219;51.362;7.074;2023-08-08T03:42:08;4.40;;;2.10;;
6372;SDS011;3219;51.362;7.074;2023-08-08T03:44:37;3.28;;;2.13;;
6372;SDS011;3219;51.362;7.074;2023-08-08T03:47:05;4.45;;;2.40;;
6372;SDS011;3219;51.362;7.074;2023-08-08T03:49:33;5.00;;;2.70;;
6372;SDS011;3219;51.362;7.074;2023-08-08T03:52:01;4.55;;;2.22;;
6372;SDS011;3219;51.362;7.074;2023-08-08T03:54:29;4.70;;;2.70;;
6372;SDS011;3219;51.362;7.074;2023-08-08T03:56:57;4.75;;;2.85;;
6372;SDS011;3219;51.362;7.074;2023-08-08T03:59:26;4.90;;;2.50;;
6372;SDS011;3219;51.362;7.074;2023-08-08T04:01:55;3.35;;;2.05;;
6372;SDS011;3219;51.362;7.074;2023-08-08T04:06:50;4.60;;;2.72;;
6372;SDS011;3219;51.362;7.074;2023-08-08T04:09:18;5.90;;;2.63;;
6372;SDS011;3219;51.362;7.074;2023-08-08T04:11:46;3.60;;;2.67;;
6372;SDS011;3219;51.362;7.074;2023-08-08T04:14:14;5.40;;;2.35;;
6372;SDS011;3219;51.362;7.074;2023-08-08T04:16:42;3.10;;;2.75;;
6372;SDS011;3219;51.362;7.074;2023-08-08T04:19:11;5.22;;;2.53;;
6372;SDS011;3219;51.362;7.074;2023-08-08T04:21:38;4.47;;;2.90;;
6372;SDS011;3219;51.362;7.074;2023-08-08T04:24:06;5.75;;;2.65;;
6372;SDS011;3219;51.362;7.074;2023-08-08T04:26:50;5.07;;;3.45;;
6372;SDS011;3219;51.362;7.074;2023-08-08T04:29:18;4.00;;;2.35;;
6372;SDS011;3219;51.362;7.074;2023-08-08T04:31:45;5.57;;;2.58;;
6372;SDS011;3219;51.362;7.074;2023-08-08T04:34:14;6.55;;;2.70;;
6372;SDS011;3219;51.362;7.074;2023-08-08T04:39:10;5.55;;;2.97;;
6372;SDS011;3219;51.362;7.074;2023-08-08T04:41:38;7.00;;;3.63;;
6372;SDS011;3219;51.362;7.074;2023-08-08T04:44:05;5.32;;;3.47;;
6372;SDS011;3219;51.362;7.074;2023-08-08T04:46:33;8.23;;;3.67;;
6372;SDS011;3219;51.362;7.074;2023-08-08T04:49:01;6.60;;;4.32;;
6372;SDS011;3219;51.362;7.074;2023-08-08T04:51:31;6.45;;;3.03;;
6372;SDS011;3219;51.362;7.074;2023-08-08T04:53:59;8.23;;;4.50;;
6372;SDS011;3219;51.362;7.074;2023-08-08T04:56:26;8.90;;;4.07;;
6372;SDS011;3219;51.362;7.074;2023-08-08T04:58:54;9.38;;;3.70;;
6372;SDS011;3219;51.362;7.074;2023-08-08T05:01:22;7.47;;;5.03;;
6372;SDS011;3219;51.362;7.074;2023-08-08T05:03:50;13.20;;;4.93;;
6372;SDS011;3219;51.362;7.074;2023-08-08T05:06:18;8.95;;;5.03;;
6372;SDS011;3219;51.362;7.074;2023-08-08T05:08:48;9.40;;;4.97;;
6372;SDS011;3219;51.362;7.074;2023-08-08T05:11:15;10.15;;;5.07;;
6372;SDS011;3219;51.362;7.074;2023-08-08T05:13:43;8.52;;;5.05;;
6372;SDS011;3219;51.362;7.074;2023-08-08T05:16:11;11.50;;;6.40;;
6372;SDS011;3219;51.362;7.074;2023-08-08T05:18:39;12.98;;;5.25;;
6372;SDS011;3219;51.362;7.074;2023-08-08T05:21:09;10.18;;;4.95;;
6372;SDS011;3219;51.362;7.074;2023-08-08T05:23:36;10.38;;;6.00;;
6372;SDS011;3219;51.362;7.074;2023-08-08T05:26:05;9.93;;;4.85;;
6372;SDS011;3219;51.362;7.074;2023-08-08T05:28:35;11.07;;;5.72;;
6372;SDS011;3219;51.362;7.074;2023-08-08T05:31:03;10.20;;;5.60;;
6372;SDS011;3219;51.362;7.074;2023-08-08T05:33:31;9.48;;;6.03;;
6372;SDS011;3219;51.362;7.074;2023-08-08T05:35:59;12.38;;;5.90;;
6372;SDS011;3219;51.362;7.074;2023-08-08T05:38:26;10.93;;;5.93;;
6372;SDS011;3219;51.362;7.074;2023-08-08T05:40:54;11.32;;;6.43;;
6372;SDS011;3219;51.362;7.074;2023-08-08T05:43:24;8.73;;;5.75;;
6372;SDS011;3219;51.362;7.074;2023-08-08T05:45:52;10.52;;;5.82;;
6372;SDS011;3219;51.362;7.074;2023-08-08T05:48:19;10.40;;;5.50;;
6372;SDS011;3219;51.362;7.074;2023-08-08T05:50:47;8.43;;;6.07;;
6372;SDS011;3219;51.362;7.074;2023-08-08T05:53:15;9.35;;;6.38;;
6372;SDS011;3219;51.362;7.074;2023-08-08T05:55:43;10.35;;;6.03;;
6372;SDS011;3219;51.362;7.074;2023-08-08T05:58:11;11.50;;;7.30;;
6372;SDS011;3219;51.362;7.074;2023-08-08T06:00:40;11.52;;;5.95;;
6372;SDS011;3219;51.362;7.074;2023-08-08T06:03:08;11.18;;;6.70;;
6372;SDS011;3219;51.362;7.074;2023-08-08T06:05:36;11.32;;;6.75;;
6372;SDS011;3219;51.362;7.074;2023-08-08T06:08:04;12.88;;;6.20;;
6372;SDS011;3219;51.362;7.074;2023-08-08T06:10:36;13.23;;;6.40;;
6372;SDS011;3219;51.362;7.074;2023-08-08T06:13:03;11.48;;;6.82;;
6372;SDS011;3219;51.362;7.074;2023-08-08T06:15:31;14.23;;;6.13;;
6372;SDS011;3219;51.362;7.074;2023-08-08T06:18:00;10.65;;;6.20;;
6372;SDS011;3219;51.362;7.074;2023-08-08T06:22:59;12.55;;;5.90;;
6372;SDS011;3219;51.362;7.074;2023-08-08T06:25:27;12.43;;;6.72;;
6372;SDS011;3219;51.362;7.074;2023-08-08T06:27:54;8.90;;;6.45;;
6372;SDS011;3219;51.362;7.074;2023-08-08T06:30:22;11.05;;;6.13;;
6372;SDS011;3219;51.362;7.074;2023-08-08T06:32:50;10.48;;;5.68;;
6372;SDS011;3219;51.362;7.074;2023-08-08T06:35:19;13.02;;;6.45;;
6372;SDS011;3219;51.362;7.074;2023-08-08T06:40:14;12.07;;;6.75;;
6372;SDS011;3219;51.362;7.074;2023-08-08T06:42:42;11.60;;;6.35;;
6372;SDS011;3219;51.362;7.074;2023-08-08T06:45:10;11.95;;;7.15;;
6372;SDS011;3219;51.362;7.074;2023-08-08T06:47:38;15.60;;;6.70;;
6372;SDS011;3219;51.362;7.074;2023-08-08T06:50:07;9.80;;;6.38;;
6372;SDS011;3219;51.362;7.074;2023-08-08T06:52:36;12.23;;;6.88;;
6372;SDS011;3219;51.362;7.074;2023-08-08T06:55:04;12.38;;;7.43;;
6372;SDS011;3219;51.362;7.074;2023-08-08T06:57:33;13.27;;;7.75;;
6372;SDS011;3219;51.362;7.074;2023-08-08T07:00:01;12.63;;;6.28;;
6372;SDS011;3219;51.362;7.074;2023-08-08T07:04:57;10.68;;;6.35;;
6372;SDS011;3219;51.362;7.074;2023-08-08T07:07:25;16.63;;;7.65;;
6372;SDS011;3219;51.362;7.074;2023-08-08T07:09:56;14.38;;;7.60;;
6372;SDS011;3219;51.362;7.074;2023-08-08T07:12:24;19.05;;;8.52;;
6372;SDS011;3219;51.362;7.074;2023-08-08T07:14:52;10.10;;;6.75;;
6372;SDS011;3219;51.362;7.074;2023-08-08T07:17:19;10.50;;;6.55;;
6372;SDS011;3219;51.362;7.074;2023-08-08T07:19:47;9.35;;;6.40;;
6372;SDS011;3219;51.362;7.074;2023-08-08T07:22:15;12.20;;;6.57;;
6372;SDS011;3219;51.362;7.074;2023-08-08T07:24:43;12.15;;;6.55;;
6372;SDS011;3219;51.362;7.074;2023-08-08T07:27:13;11.38;;;6.82;;
6372;SDS011;3219;51.362;7.074;2023-08-08T07:29:40;16.48;;;7.20;;
6372;SDS011;3219;51.362;7.074;2023-08-08T07:32:08;11.27;;;6.18;;
6372;SDS011;3219;51.362;7.074;2023-08-08T07:34:36;9.25;;;5.50;;
6372;SDS011;3219;51.362;7.074;2023-08-08T07:37:05;10.35;;;6.03;;
6372;SDS011;3219;51.362;7.074;2023-08-08T07:39:33;7.18;;;5.15;;
6372;SDS011;3219;51.362;7.074;2023-08-08T07:42:00;9.63;;;6.15;;
6372;SDS011;3219;51.362;7.074;2023-08-08T07:44:29;10.20;;;5.53;;
6372;SDS011;3219;51.362;7.074;2023-08-08T07:46:59;7.32;;;5.05;;
6372;SDS011;3219;51.362;7.074;2023-08-08T07:49:27;8.40;;;4.75;;
6372;SDS011;3219;51.362;7.074;2023-08-08T07:51:54;8.60;;;5.47;;
6372;SDS011;3219;51.362;7.074;2023-08-08T07:54:22;10.75;;;5.95;;
6372;SDS011;3219;51.362;7.074;2023-08-08T07:56:50;9.73;;;4.70;;
6372;SDS011;3219;51.362;7.074;2023-08-08T07:59:18;7.93;;;5.40;;
6372;SDS011;3219;51.362;7.074;2023-08-08T08:01:48;7.10;;;4.30;;
6372;SDS011;3219;51.362;7.074;2023-08-08T08:04:15;8.52;;;4.95;;
6372;SDS011;3219;51.362;7.074;2023-08-08T08:06:43;8.35;;;3.35;;
6372;SDS011;3219;51.362;7.074;2023-08-08T08:09:11;7.75;;;4.10;;
6372;SDS011;3219;51.362;7.074;2023-08-08T08:11:39;6.75;;;4.10;;
6372;SDS011;3219;51.362;7.074;2023-08-08T08:14:07;6.43;;;3.55;;
6372;SDS011;3219;51.362;7.074;2023-08-08T08:16:35;8.00;;;3.67;;
6372;SDS011;3219;51.362;7.074;2023-08-08T08:19:05;8.70;;;3.38;;
6372;SDS011;3219;51.362;7.074;2023-08-08T08:26:29;4.13;;;2.47;;
6372;SDS011;3219;51.362;7.074;2023-08-08T08:28:57;6.18;;;4.07;;
6372;SDS011;3219;51.362;7.074;2023-08-08T08:31:25;7.28;;;4.05;;
6372;SDS011;3219;51.362;7.074;2023-08-08T08:33:53;7.30;;;3.55;;
6372;SDS011;3219;51.362;7.074;2023-08-08T08:36:22;6.05;;;3.20;;
6372;SDS011;3219;51.362;7.074;2023-08-08T08:38:51;4.10;;;3.03;;
6372;SDS011;3219;51.362;7.074;2023-08-08T08:41:20;6.68;;;2.92;;
6372;SDS011;3219;51.362;7.074;2023-08-08T08:43:50;5.53;;;2.38;;
6372;SDS011;3219;51.362;7.074;2023-08-08T08:46:19;6.85;;;2.40;;
6372;SDS011;3219;51.362;7.074;2023-08-08T08:51:15;7.80;;;3.17;;
6372;SDS011;3219;51.362;7.074;2023-08-08T08:54:03;5.85;;;2.90;;
6372;SDS011;3219;51.362;7.074;2023-08-08T08:56:31;4.60;;;2.88;;
6372;SDS011;3219;51.362;7.074;2023-08-08T08:58:59;5.85;;;3.10;;
6372;SDS011;3219;51.362;7.074;2023-08-08T09:01:28;7.03;;;2.65;;
6372;SDS011;3219;51.362;7.074;2023-08-08T09:03:56;6.30;;;2.40;;
6372;SDS011;3219;51.362;7.074;2023-08-08T09:06:24;4.95;;;2.95;;
6372;SDS011;3219;51.362;7.074;2023-08-08T09:08:54;6.03;;;2.03;;
6372;SDS011;3219;51.362;7.074;2023-08-08T09:11:24;5.90;;;2.28;;
6372;SDS011;3219;51.362;7.074;2023-08-08T09:13:52;5.95;;;2.50;;
6372;SDS011;3219;51.362;7.074;2023-08-08T09:16:21;4.93;;;2.05;;
6372;SDS011;3219;51.362;7.074;2023-08-08T09:18:50;2.65;;;2.45;;
6372;SDS011;3219;51.362;7.074;2023-08-08T09:21:18;6.10;;;2.63;;
6372;SDS011;3219;51.362;7.074;2023-08-08T09:23:46;3.50;;;1.90;;
6372;SDS011;3219;51.362;7.074;2023-08-08T09:26:15;5.03;;;1.95;;
6372;SDS011;3219;51.362;7.074;2023-08-08T09:28:45;7.05;;;2.03;;
6372;SDS011;3219;51.362;7.074;2023-08-08T09:31:13;4.03;;;1.95;;
6372;SDS011;3219;51.362;7.074;2023-08-08T09:33:41;8.18;;;2.05;;
6372;SDS011;3219;51.362;7.074;2023-08-08T09:36:13;8.20;;;2.35;;
6372;SDS011;3219;51.362;7.074;2023-08-08T09:38:41;5.30;;;1.98;;
6372;SDS011;3219;51.362;7.074;2023-08-08T09:41:10;3.55;;;1.75;;
6372;SDS011;3219;51.362;7.074;2023-08-08T09:43:39;4.55;;;1.70;;
6372;SDS011;3219;51.362;7.074;2023-08-08T09:46:09;8.00;;;2.40;;
6372;SDS011;3219;51.362;7.074;2023-08-08T09:48:38;4.03;;;2.40;;
6372;SDS011;3219;51.362;7.074;2023-08-08T09:51:07;5.47;;;2.03;;
6372;SDS011;3219;51.362;7.074;2023-08-08T09:53:35;4.78;;;1.90;;
6372;SDS011;3219;51.362;7.074;2023-08-08T09:56:03;6.18;;;2.00;;
6372;SDS011;3219;51.362;7.074;2023-08-08T09:58:32;6.35;;;2.42;;
6372;SDS011;3219;51.362;7.074;2023-08-08T10:01:00;5.72;;;1.80;;
6372;SDS011;3219;51.362;7.074;2023-08-08T10:03:31;5.57;;;1.85;;
6372;SDS011;3219;51.362;7.074;2023-08-08T10:06:00;5.93;;;2.67;;
6372;SDS011;3219;51.362;7.074;2023-08-08T10:20:49;2.78;;;2.08;;
6372;SDS011;3219;51.362;7.074;2023-08-08T10:23:18;4.65;;;2.08;;
6372;SDS011;3219;51.362;7.074;2023-08-08T10:25:47;5.50;;;1.83;;
6372;SDS011;3219;51.362;7.074;2023-08-08T10:28:16;3.80;;;1.77;;
6372;SDS011;3219;51.362;7.074;2023-08-08T10:30:44;4.53;;;2.03;;
6372;SDS011;3219;51.362;7.074;2023-08-08T10:33:16;5.47;;;1.98;;
6372;SDS011;3219;51.362;7.074;2023-08-08T10:36:01;6.43;;;2.53;;
6372;SDS011;3219;51.362;7.074;2023-08-08T10:38:39;7.65;;;2.30;;
6372;SDS011;3219;51.362;7.074;2023-08-08T10:41:09;4.25;;;2.05;;
6372;SDS011;3219;51.362;7.074;2023-08-08T10:43:37;3.30;;;1.95;;
6372;SDS011;3219;51.362;7.074;2023-08-08T10:46:06;3.75;;;2.53;;
6372;SDS011;3219;51.362;7.074;2023-08-08T10:48:34;6.28;;;3.60;;
6372;SDS011;3219;51.362;7.074;2023-08-08T10:51:05;4.35;;;1.85;;
6372;SDS011;3219;51.362;7.074;2023-08-08T10:53:33;5.72;;;1.50;;
6372;SDS011;3219;51.362;7.074;2023-08-08T10:56:02;5.07;;;1.70;;
6372;SDS011;3219;51.362;7.074;2023-08-08T10:58:34;3.25;;;1.80;;
6372;SDS011;3219;51.362;7.074;2023-08-08T11:01:03;7.45;;;1.73;;
6372;SDS011;3219;51.362;7.074;2023-08-08T11:03:34;6.72;;;1.75;;
6372;SDS011;3219;51.362;7.074;2023-08-08T11:06:05;4.13;;;1.73;;
6372;SDS011;3219;51.362;7.074;2023-08-08T11:08:33;4.18;;;1.55;;
6372;SDS011;3219;51.362;7.074;2023-08-08T11:11:03;5.68;;;2.17;;
6372;SDS011;3219;51.362;7.074;2023-08-08T11:13:32;6.35;;;1.83;;
6372;SDS011;3219;51.362;7.074;2023-08-08T11:16:00;4.82;;;2.25;;
6372;SDS011;3219;51.362;7.074;2023-08-08T11:18:28;4.95;;;2.28;;
6372;SDS011;3219;51.362;7.074;2023-08-08T11:20:56;3.85;;;1.10;;
6372;SDS011;3219;51.362;7.074;2023-08-08T11:23:26;4.72;;;1.70;;
6372;SDS011;3219;51.362;7.074;2023-08-08T11:25:54;5.05;;;1.77;;
6372;SDS011;3219;51.362;7.074;2023-08-08T11:28:22;4.55;;;2.08;;
6372;SDS011;3219;51.362;7.074;2023-08-08T11:30:50;5.18;;;2.00;;
6372;SDS011;3219;51.362;7.074;2023-08-08T11:33:19;4.95;;;2.10;;
6372;SDS011;3219;51.362;7.074;2023-08-08T11:35:47;5.72;;;2.22;;
6372;SDS011;3219;51.362;7.074;2023-08-08T11:38:15;3.38;;;2.05;;
6372;SDS011;3219;51.362;7.074;2023-08-08T11:40:45;4.40;;;2.00;;
6372;SDS011;3219;51.362;7.074;2023-08-08T11:43:13;4.60;;;2.10;;
6372;SDS011;3219;51.362;7.074;2023-08-08T11:45:42;10.18;;;2.70;;
6372;SDS011;3219;51.362;7.074;2023-08-08T11:48:10;4.78;;;2.38;;
6372;SDS011;3219;51.362;7.074;2023-08-08T11:50:38;6.32;;;2.67;;
6372;SDS011;3219;51.362;7.074;2023-08-08T11:53:08;5.75;;;2.67;;
6372;SDS011;3219;51.362;7.074;2023-08-08T11:55:36;4.97;;;2.05;;
6372;SDS011;3219;51.362;7.074;2023-08-08T11:58:12;5.97;;;2.17;;
6372;SDS011;3219;51.362;7.074;2023-08-08T12:00:42;5.35;;;2.85;;
6372;SDS011;3219;51.362;7.074;2023-08-08T12:03:12;5.13;;;2.05;;
6372;SDS011;3219;51.362;7.074;2023-08-08T12:05:44;4.97;;;2.22;;
6372;SDS011;3219;51.362;7.074;2023-08-08T12:08:12;8.75;;;1.85;;
6372;SDS011;3219;51.362;7.074;2023-08-08T12:10:46;3.90;;;2.08;;
6372;SDS011;3219;51.362;7.074;2023-08-08T12:13:19;5.97;;;1.73;;
6372;SDS011;3219;51.362;7.074;2023-08-08T12:15:47;6.22;;;1.88;;
6372;SDS011;3219;51.362;7.074;2023-08-08T12:18:16;2.75;;;1.92;;
6372;SDS011;3219;51.362;7.074;2023-08-08T12:20:44;4.05;;;1.98;;
6372;SDS011;3219;51.362;7.074;2023-08-08T12:23:12;4.40;;;1.90;;
6372;SDS011;3219;51.362;7.074;2023-08-08T12:25:41;5.38;;;2.60;;
6372;SDS011;3219;51.362;7.074;2023-08-08T12:28:09;6.63;;;2.10;;
6372;SDS011;3219;51.362;7.074;2023-08-08T12:30:39;4.32;;;2.13;;
6372;SDS011;3219;51.362;7.074;2023-08-08T12:33:07;4.13;;;1.80;;
6372;SDS011;3219;51.362;7.074;2023-08-08T12:35:35;6.53;;;2.03;;
6372;SDS011;3219;51.362;7.074;2023-08-08T12:38:03;3.50;;;1.55;;
6372;SDS011;3219;51.362;7.074;2023-08-08T12:40:31;4.28;;;2.08;;
6372;SDS011;3219;51.362;7.074;2023-08-08T12:42:59;3.80;;;2.45;;
6372;SDS011;3219;51.362;7.074;2023-08-08T12:45:27;6.25;;;2.28;;
6372;SDS011;3219;51.362;7.074;2023-08-08T12:47:57;5.55;;;2.30;;
6372;SDS011;3219;51.362;7.074;2023-08-08T12:50:25;6.85;;;2.15;;
6372;SDS011;3219;51.362;7.074;2023-08-08T12:52:53;5.32;;;2.67;;
6372;SDS011;3219;51.362;7.074;2023-08-08T12:55:21;6.35;;;2.28;;
6372;SDS011;3219;51.362;7.074;2023-08-08T12:57:49;4.30;;;1.95;;
6372;SDS011;3219;51.362;7.074;2023-08-08T13:00:17;4.45;;;2.83;;
6372;SDS011;3219;51.362;7.074;2023-08-08T13:02:45;6.95;;;1.92;;
6372;SDS011;3219;51.362;7.074;2023-08-08T13:05:15;5.45;;;2.45;;
6372;SDS011;3219;51.362;7.074;2023-08-08T13:07:43;3.35;;;1.52;;
6372;SDS011;3219;51.362;7.074;2023-08-08T13:10:11;3.33;;;1.40;;
6372;SDS011;3219;51.362;7.074;2023-08-08T13:12:40;3.58;;;1.80;;
6372;SDS011;3219;51.362;7.074;2023-08-08T13:15:08;2.75;;;0.98;;
6372;SDS011;3219;51.362;7.074;2023-08-08T13:17:37;5.97;;;2.30;;
6372;SDS011;3219;51.362;7.074;2023-08-08T13:20:05;4.05;;;2.05;;
6372;SDS011;3219;51.362;7.074;2023-08-08T13:22:35;4.63;;;1.95;;
6372;SDS011;3219;51.362;7.074;2023-08-08T13:25:03;3.15;;;1.67;;
6372;SDS011;3219;51.362;7.074;2023-08-08T13:27:31;4.75;;;1.70;;
6372;SDS011;3219;51.362;7.074;2023-08-08T13:30:00;3.88;;;1.98;;
6372;SDS011;3219;51.362;7.074;2023-08-08T13:32:28;4.72;;;2.13;;
6372;SDS011;3219;51.362;7.074;2023-08-08T13:34:56;4.78;;;2.03;;
6372;SDS011;3219;51.362;7.074;2023-08-08T13:37:24;3.72;;;1.98;;
6372;SDS011;3219;51.362;7.074;2023-08-08T13:39:54;4.82;;;2.20;;
6372;SDS011;3219;51.362;7.074;2023-08-08T13:42:23;6.97;;;2.03;;
6372;SDS011;3219;51.362;7.074;2023-08-08T13:44:51;4.40;;;1.90;;
6372;SDS011;3219;51.362;7.074;2023-08-08T13:47:19;3.45;;;1.90;;
6372;SDS011;3219;51.362;7.074;2023-08-08T13:49:47;4.80;;;2.55;;
6372;SDS011;3219;51.362;7.074;2023-08-08T13:52:15;3.22;;;2.17;;
6372;SDS011;3219;51.362;7.074;2023-08-08T13:54:43;3.72;;;1.60;;
6372;SDS011;3219;51.362;7.074;2023-08-08T13:57:13;3.33;;;1.42;;
6372;SDS011;3219;51.362;7.074;2023-08-08T13:59:41;2.70;;;1.50;;
6372;SDS011;3219;51.362;7.074;2023-08-08T14:02:09;2.00;;;1.55;;
6372;SDS011;3219;51.362;7.074;2023-08-08T14:04:37;4.75;;;2.13;;
6372;SDS011;3219;51.362;7.074;2023-08-08T14:07:05;3.35;;;1.45;;
6372;SDS011;3219;51.362;7.074;2023-08-08T14:09:34;3.67;;;1.60;;
6372;SDS011;3219;51.362;7.074;2023-08-08T14:12:02;3.63;;;1.75;;
6372;SDS011;3219;51.362;7.074;2023-08-08T14:14:32;2.95;;;1.88;;
6372;SDS011;3219;51.362;7.074;2023-08-08T14:17:00;2.95;;;1.73;;
6372;SDS011;3219;51.362;7.074;2023-08-08T14:19:28;2.53;;;1.38;;
6372;SDS011;3219;51.362;7.074;2023-08-08T14:21:56;5.55;;;1.85;;
6372;SDS011;3219;51.362;7.074;2023-08-08T14:24:24;5.03;;;1.75;;
6372;SDS011;3219;51.362;7.074;2023-08-08T14:26:52;5.35;;;1.92;;
6372;SDS011;3219;51.362;7.074;2023-08-08T14:29:20;4.10;;;2.15;;
6372;SDS011;3219;51.362;7.074;2023-08-08T14:34:19;5.53;;;1.85;;
6372;SDS011;3219;51.362;7.074;2023-08-08T14:36:56;4.15;;;1.77;;
6372;SDS011;3219;51.362;7.074;2023-08-08T14:39:24;2.17;;;1.67;;
6372;SDS011;3219;51.362;7.074;2023-08-08T14:41:52;5.30;;;1.88;;
6372;SDS011;3219;51.362;7.074;2023-08-08T14:44:20;4.20;;;2.28;;
6372;SDS011;3219;51.362;7.074;2023-08-08T14:46:48;5.10;;;2.75;;
6372;SDS011;3219;51.362;7.074;2023-08-08T14:49:16;3.03;;;1.92;;
6372;SDS011;3219;51.362;7.074;2023-08-08T14:51:46;4.43;;;2.20;;
6372;SDS011;3219;51.362;7.074;2023-08-08T14:54:14;2.28;;;1.40;;
6372;SDS011;3219;51.362;7.074;2023-08-08T14:56:42;3.80;;;2.10;;
6372;SDS011;3219;51.362;7.074;2023-08-08T14:59:10;2.95;;;1.90;;
6372;SDS011;3219;51.362;7.074;2023-08-08T15:01:38;3.30;;;1.67;;
6372;SDS011;3219;51.362;7.074;2023-08-08T15:04:07;2.65;;;1.75;;
6372;SDS011;3219;51.362;7.074;2023-08-08T15:06:35;2.22;;;2.00;;
6372;SDS011;3219;51.362;7.074;2023-08-08T15:09:05;3.08;;;1.60;;
6372;SDS011;3219;51.362;7.074;2023-08-08T15:11:33;2.67;;;1.13;;
6372;SDS011;3219;51.362;7.074;2023-08-08T15:14:01;2.55;;;2.00;;
6372;SDS011;3219;51.362;7.074;2023-08-08T15:16:29;1.85;;;1.33;;
6372;SDS011;3219;51.362;7.074;2023-08-08T15:18:58;4.75;;;1.48;;
6372;SDS011;3219;51.362;7.074;2023-08-08T15:21:26;1.73;;;1.42;;
6372;SDS011;3219;51.362;7.074;2023-08-08T15:23:54;2.90;;;1.33;;
6372;SDS011;3219;51.362;7.074;2023-08-08T15:26:23;2.33;;;1.45;;
6372;SDS011;3219;51.362;7.074;2023-08-08T15:28:52;2.60;;;0.88;;
6372;SDS011;3219;51.362;7.074;2023-08-08T15:31:20;2.33;;;1.45;;
6372;SDS011;3219;51.362;7.074;2023-08-08T15:33:48;2.10;;;0.73;;
6372;SDS011;3219;51.362;7.074;2023-08-08T15:36:16;2.35;;;0.85;;
6372;SDS011;3219;51.362;7.074;2023-08-08T15:38:45;2.67;;;1.08;;
6372;SDS011;3219;51.362;7.074;2023-08-08T15:41:14;1.77;;;1.17;;
6372;SDS011;3219;51.362;7.074;2023-08-08T15:43:43;2.42;;;0.90;;
6372;SDS011;3219;51.362;7.074;2023-08-08T15:46:11;2.33;;;1.27;;
6372;SDS011;3219;51.362;7.074;2023-08-08T15:48:39;2.45;;;1.08;;
6372;SDS011;3219;51.362;7.074;2023-08-08T15:51:08;1.48;;;1.02;;
6372;SDS011;3219;51.362;7.074;2023-08-08T15:53:36;2.50;;;1.08;;
6372;SDS011;3219;51.362;7.074;2023-08-08T15:56:04;2.50;;;0.85;;
6372;SDS011;3219;51.362;7.074;2023-08-08T15:58:32;1.65;;;1.35;;
6372;SDS011;3219;51.362;7.074;2023-08-08T16:01:02;1.90;;;1.05;;